sensor_id;sensor_type;location;lat;lon;timestamp;P1;durP1;ratioP1;P2;durP2;ratioP2
40471;SDS011;26174;42.908;23.800;2024-01-27T00:01:38;33.47;;;14.52;;
40471;SDS011;26174;42.908;23.800;2024-01-27T00:04:04;36.28;;;14.68;;
40471;SDS011;26174;42.908;23.800;2024-01-27T00:06:30;40.97;;;16.38;;
40471;SDS011;26174;42.908;23.800;2024-01-27T00:08:55;38.05;;;17.48;;
40471;SDS011;26174;42.908;23.800;2024-01-27T00:11:21;44.65;;;18.52;;
40471;SDS011;26174;42.908;23.800;2024-01-27T00:13:48;61.55;;;25.88;;
40471;SDS011;26174;42.908;23.800;2024-01-27T00:16:14;84.43;;;30.45;;
40471;SDS011;26174;42.908;23.800;2024-01-27T00:18:39;43.63;;;18.13;;
40471;SDS011;26174;42.908;23.800;2024-01-27T00:21:05;34.58;;;14.75;;
40471;SDS011;26174;42.908;23.800;2024-01-27T00:23:31;37.72;;;15.75;;
40471;SDS011;26174;42.908;23.800;2024-01-27T00:25:57;29.67;;;13.07;;
40471;SDS011;26174;42.908;23.800;2024-01-27T00:28:23;34.45;;;14.43;;
40471;SDS011;26174;42.908;23.800;2024-01-27T00:30:51;36.60;;;13.45;;
40471;SDS011;26174;42.908;23.800;2024-01-27T00:33:17;33.03;;;13.60;;
40471;SDS011;26174;42.908;23.800;2024-01-27T00:35:42;30.88;;;13.48;;
40471;SDS011;26174;42.908;23.800;2024-01-27T00:38:08;31.77;;;11.63;;
40471;SDS011;26174;42.908;23.800;2024-01-27T00:40:34;31.15;;;13.75;;
40471;SDS011;26174;42.908;23.800;2024-01-27T00:43:01;33.60;;;15.63;;
40471;SDS011;26174;42.908;23.800;2024-01-27T00:45:28;45.05;;;17.10;;
40471;SDS011;26174;42.908;23.800;2024-01-27T00:47:55;40.55;;;16.73;;
40471;SDS011;26174;42.908;23.800;2024-01-27T00:50:23;39.03;;;15.90;;
40471;SDS011;26174;42.908;23.800;2024-01-27T00:52:49;25.27;;;11.50;;
40471;SDS011;26174;42.908;23.800;2024-01-27T00:55:14;26.27;;;12.82;;
40471;SDS011;26174;42.908;23.800;2024-01-27T00:57:40;37.85;;;14.45;;
40471;SDS011;26174;42.908;23.800;2024-01-27T01:00:06;34.35;;;14.85;;
40471;SDS011;26174;42.908;23.800;2024-01-27T01:02:33;29.50;;;13.65;;
40471;SDS011;26174;42.908;23.800;2024-01-27T01:04:59;39.03;;;16.08;;
40471;SDS011;26174;42.908;23.800;2024-01-27T01:07:25;44.92;;;16.50;;
40471;SDS011;26174;42.908;23.800;2024-01-27T01:09:50;36.95;;;16.13;;
40471;SDS011;26174;42.908;23.800;2024-01-27T01:12:16;44.85;;;18.75;;
40471;SDS011;26174;42.908;23.800;2024-01-27T01:14:43;55.17;;;23.25;;
40471;SDS011;26174;42.908;23.800;2024-01-27T01:17:09;71.65;;;29.33;;
40471;SDS011;26174;42.908;23.800;2024-01-27T01:19:36;71.88;;;26.92;;
40471;SDS011;26174;42.908;23.800;2024-01-27T01:22:02;75.78;;;29.67;;
40471;SDS011;26174;42.908;23.800;2024-01-27T01:24:29;65.38;;;26.52;;
40471;SDS011;26174;42.908;23.800;2024-01-27T01:26:54;66.88;;;27.38;;
40471;SDS011;26174;42.908;23.800;2024-01-27T01:29:20;68.57;;;27.48;;
40471;SDS011;26174;42.908;23.800;2024-01-27T01:31:47;73.20;;;29.10;;
40471;SDS011;26174;42.908;23.800;2024-01-27T01:34:12;78.55;;;31.02;;
40471;SDS011;26174;42.908;23.800;2024-01-27T01:36:38;76.35;;;31.17;;
40471;SDS011;26174;42.908;23.800;2024-01-27T01:39:04;84.72;;;35.17;;
40471;SDS011;26174;42.908;23.800;2024-01-27T01:41:29;91.22;;;35.83;;
40471;SDS011;26174;42.908;23.800;2024-01-27T01:43:55;80.32;;;32.45;;
40471;SDS011;26174;42.908;23.800;2024-01-27T01:46:21;79.45;;;32.00;;
40471;SDS011;26174;42.908;23.800;2024-01-27T01:48:49;73.20;;;30.88;;
40471;SDS011;26174;42.908;23.800;2024-01-27T01:51:15;78.15;;;32.20;;
40471;SDS011;26174;42.908;23.800;2024-01-27T01:53:41;69.63;;;28.98;;
40471;SDS011;26174;42.908;23.800;2024-01-27T01:56:08;83.60;;;32.90;;
40471;SDS011;26174;42.908;23.800;2024-01-27T01:58:33;83.07;;;31.38;;
40471;SDS011;26174;42.908;23.800;2024-01-27T02:01:02;61.97;;;27.08;;
40471;SDS011;26174;42.908;23.800;2024-01-27T02:03:28;61.80;;;24.73;;
40471;SDS011;26174;42.908;23.800;2024-01-27T02:05:54;44.25;;;20.52;;
40471;SDS011;26174;42.908;23.800;2024-01-27T02:08:20;46.67;;;20.45;;
40471;SDS011;26174;42.908;23.800;2024-01-27T02:10:46;47.08;;;19.25;;
40471;SDS011;26174;42.908;23.800;2024-01-27T02:18:09;36.45;;;15.07;;
40471;SDS011;26174;42.908;23.800;2024-01-27T02:20:35;33.50;;;13.18;;
40471;SDS011;26174;42.908;23.800;2024-01-27T02:23:02;30.80;;;14.15;;
40471;SDS011;26174;42.908;23.800;2024-01-27T02:25:30;30.15;;;13.30;;
40471;SDS011;26174;42.908;23.800;2024-01-27T02:27:56;36.97;;;15.70;;
40471;SDS011;26174;42.908;23.800;2024-01-27T02:30:22;41.80;;;16.42;;
40471;SDS011;26174;42.908;23.800;2024-01-27T02:32:47;38.92;;;17.60;;
40471;SDS011;26174;42.908;23.800;2024-01-27T02:35:13;54.58;;;20.42;;
40471;SDS011;26174;42.908;23.800;2024-01-27T02:37:39;55.90;;;21.70;;
40471;SDS011;26174;42.908;23.800;2024-01-27T02:40:08;48.55;;;20.35;;
40471;SDS011;26174;42.908;23.800;2024-01-27T02:42:37;41.22;;;19.00;;
40471;SDS011;26174;42.908;23.800;2024-01-27T02:45:03;41.35;;;18.33;;
40471;SDS011;26174;42.908;23.800;2024-01-27T02:47:29;40.25;;;18.92;;
40471;SDS011;26174;42.908;23.800;2024-01-27T02:49:55;43.17;;;19.08;;
40471;SDS011;26174;42.908;23.800;2024-01-27T02:52:21;44.95;;;18.58;;
40471;SDS011;26174;42.908;23.800;2024-01-27T02:54:46;46.40;;;20.35;;
40471;SDS011;26174;42.908;23.800;2024-01-27T02:57:13;50.55;;;21.90;;
40471;SDS011;26174;42.908;23.800;2024-01-27T02:59:40;47.85;;;21.52;;
40471;SDS011;26174;42.908;23.800;2024-01-27T03:02:06;54.55;;;24.73;;
40471;SDS011;26174;42.908;23.800;2024-01-27T03:04:31;57.70;;;24.70;;
40471;SDS011;26174;42.908;23.800;2024-01-27T03:06:57;65.15;;;25.67;;
40471;SDS011;26174;42.908;23.800;2024-01-27T03:09:23;56.38;;;24.75;;
40471;SDS011;26174;42.908;23.800;2024-01-27T03:11:48;62.33;;;24.50;;
40471;SDS011;26174;42.908;23.800;2024-01-27T03:14:14;59.13;;;26.05;;
40471;SDS011;26174;42.908;23.800;2024-01-27T03:16:40;60.38;;;24.35;;
40471;SDS011;26174;42.908;23.800;2024-01-27T03:19:05;49.45;;;22.58;;
40471;SDS011;26174;42.908;23.800;2024-01-27T03:21:31;61.58;;;26.25;;
40471;SDS011;26174;42.908;23.800;2024-01-27T03:23:57;64.65;;;26.20;;
40471;SDS011;26174;42.908;23.800;2024-01-27T03:26:23;60.53;;;25.75;;
40471;SDS011;26174;42.908;23.800;2024-01-27T03:28:48;60.25;;;25.38;;
40471;SDS011;26174;42.908;23.800;2024-01-27T03:31:14;59.55;;;25.17;;
40471;SDS011;26174;42.908;23.800;2024-01-27T03:33:40;63.42;;;27.02;;
40471;SDS011;26174;42.908;23.800;2024-01-27T03:36:09;63.33;;;24.55;;
40471;SDS011;26174;42.908;23.800;2024-01-27T03:38:38;61.88;;;25.73;;
40471;SDS011;26174;42.908;23.800;2024-01-27T03:41:04;45.72;;;21.02;;
40471;SDS011;26174;42.908;23.800;2024-01-27T03:43:30;50.05;;;22.52;;
40471;SDS011;26174;42.908;23.800;2024-01-27T03:45:59;53.78;;;23.27;;
40471;SDS011;26174;42.908;23.800;2024-01-27T03:48:25;48.67;;;20.45;;
40471;SDS011;26174;42.908;23.800;2024-01-27T03:50:51;55.28;;;19.15;;
40471;SDS011;26174;42.908;23.800;2024-01-27T03:53:16;42.38;;;19.65;;
40471;SDS011;26174;42.908;23.800;2024-01-27T03:55:42;42.55;;;18.10;;
40471;SDS011;26174;42.908;23.800;2024-01-27T03:58:08;45.05;;;18.77;;
40471;SDS011;26174;42.908;23.800;2024-01-27T04:00:33;47.40;;;20.92;;
40471;SDS011;26174;42.908;23.800;2024-01-27T04:02:59;50.13;;;21.38;;
40471;SDS011;26174;42.908;23.800;2024-01-27T04:05:28;50.85;;;20.63;;
40471;SDS011;26174;42.908;23.800;2024-01-27T04:07:56;43.40;;;19.83;;
40471;SDS011;26174;42.908;23.800;2024-01-27T04:10:22;43.80;;;19.42;;
40471;SDS011;26174;42.908;23.800;2024-01-27T04:12:48;48.42;;;20.75;;
40471;SDS011;26174;42.908;23.800;2024-01-27T04:15:14;49.65;;;20.30;;
40471;SDS011;26174;42.908;23.800;2024-01-27T04:17:40;41.58;;;19.30;;
40471;SDS011;26174;42.908;23.800;2024-01-27T04:20:06;47.63;;;20.77;;
40471;SDS011;26174;42.908;23.800;2024-01-27T04:22:36;47.13;;;20.98;;
40471;SDS011;26174;42.908;23.800;2024-01-27T04:25:01;48.05;;;21.02;;
40471;SDS011;26174;42.908;23.800;2024-01-27T04:27:28;53.65;;;23.10;;
40471;SDS011;26174;42.908;23.800;2024-01-27T04:29:54;57.03;;;24.13;;
40471;SDS011;26174;42.908;23.800;2024-01-27T04:32:22;47.45;;;23.48;;
40471;SDS011;26174;42.908;23.800;2024-01-27T04:34:48;51.70;;;22.15;;
40471;SDS011;26174;42.908;23.800;2024-01-27T04:37:14;47.83;;;20.63;;
40471;SDS011;26174;42.908;23.800;2024-01-27T04:39:40;41.13;;;20.67;;
40471;SDS011;26174;42.908;23.800;2024-01-27T04:42:05;46.63;;;20.67;;
40471;SDS011;26174;42.908;23.800;2024-01-27T04:44:31;48.80;;;22.10;;
40471;SDS011;26174;42.908;23.800;2024-01-27T04:46:57;48.25;;;21.30;;
40471;SDS011;26174;42.908;23.800;2024-01-27T04:49:23;48.08;;;20.83;;
40471;SDS011;26174;42.908;23.800;2024-01-27T04:51:49;47.33;;;20.42;;
40471;SDS011;26174;42.908;23.800;2024-01-27T04:54:15;48.13;;;21.40;;
40471;SDS011;26174;42.908;23.800;2024-01-27T04:56:40;49.55;;;22.50;;
40471;SDS011;26174;42.908;23.800;2024-01-27T04:59:06;40.50;;;18.50;;
40471;SDS011;26174;42.908;23.800;2024-01-27T05:01:32;44.22;;;20.02;;
40471;SDS011;26174;42.908;23.800;2024-01-27T05:03:57;41.55;;;20.23;;
40471;SDS011;26174;42.908;23.800;2024-01-27T05:06:24;50.05;;;22.33;;
40471;SDS011;26174;42.908;23.800;2024-01-27T05:08:50;53.40;;;21.75;;
40471;SDS011;26174;42.908;23.800;2024-01-27T05:11:16;50.50;;;22.23;;
40471;SDS011;26174;42.908;23.800;2024-01-27T05:13:50;56.53;;;23.17;;
40471;SDS011;26174;42.908;23.800;2024-01-27T05:16:15;51.03;;;21.95;;
40471;SDS011;26174;42.908;23.800;2024-01-27T05:18:41;58.67;;;24.65;;
40471;SDS011;26174;42.908;23.800;2024-01-27T05:21:07;57.58;;;24.55;;
40471;SDS011;26174;42.908;23.800;2024-01-27T05:23:32;66.63;;;26.73;;
40471;SDS011;26174;42.908;23.800;2024-01-27T05:25:58;58.22;;;24.88;;
40471;SDS011;26174;42.908;23.800;2024-01-27T05:28:24;57.60;;;25.25;;
40471;SDS011;26174;42.908;23.800;2024-01-27T05:30:49;38.45;;;16.65;;
40471;SDS011;26174;42.908;23.800;2024-01-27T05:33:15;50.22;;;21.73;;
40471;SDS011;26174;42.908;23.800;2024-01-27T05:35:41;46.17;;;22.35;;
40471;SDS011;26174;42.908;23.800;2024-01-27T05:38:07;52.03;;;23.38;;
40471;SDS011;26174;42.908;23.800;2024-01-27T05:40:33;43.95;;;20.90;;
40471;SDS011;26174;42.908;23.800;2024-01-27T05:42:59;54.45;;;23.58;;
40471;SDS011;26174;42.908;23.800;2024-01-27T05:45:25;60.90;;;26.83;;
40471;SDS011;26174;42.908;23.800;2024-01-27T05:47:51;59.40;;;25.75;;
40471;SDS011;26174;42.908;23.800;2024-01-27T05:50:17;41.85;;;20.52;;
40471;SDS011;26174;42.908;23.800;2024-01-27T05:52:43;48.80;;;21.30;;
40471;SDS011;26174;42.908;23.800;2024-01-27T05:55:08;48.20;;;22.80;;
40471;SDS011;26174;42.908;23.800;2024-01-27T05:57:35;50.83;;;24.58;;
40471;SDS011;26174;42.908;23.800;2024-01-27T06:00:00;50.03;;;24.20;;
40471;SDS011;26174;42.908;23.800;2024-01-27T06:02:26;60.47;;;30.60;;
40471;SDS011;26174;42.908;23.800;2024-01-27T06:04:52;61.50;;;28.95;;
40471;SDS011;26174;42.908;23.800;2024-01-27T06:07:17;79.38;;;34.67;;
40471;SDS011;26174;42.908;23.800;2024-01-27T06:09:43;81.50;;;36.85;;
40471;SDS011;26174;42.908;23.800;2024-01-27T06:12:09;68.55;;;30.20;;
40471;SDS011;26174;42.908;23.800;2024-01-27T06:14:34;57.28;;;24.15;;
40471;SDS011;26174;42.908;23.800;2024-01-27T06:17:01;7.65;;;4.60;;
40471;SDS011;26174;42.908;23.800;2024-01-27T06:19:28;3.72;;;3.42;;
40471;SDS011;26174;42.908;23.800;2024-01-27T06:21:53;10.93;;;4.63;;
40471;SDS011;26174;42.908;23.800;2024-01-27T06:24:19;2.17;;;1.98;;
40471;SDS011;26174;42.908;23.800;2024-01-27T06:26:45;4.20;;;2.85;;
40471;SDS011;26174;42.908;23.800;2024-01-27T06:29:10;6.05;;;3.08;;
40471;SDS011;26174;42.908;23.800;2024-01-27T06:31:36;6.13;;;4.25;;
40471;SDS011;26174;42.908;23.800;2024-01-27T06:34:02;10.70;;;4.28;;
40471;SDS011;26174;42.908;23.800;2024-01-27T06:36:27;16.75;;;7.78;;
40471;SDS011;26174;42.908;23.800;2024-01-27T06:38:53;3.97;;;3.60;;
40471;SDS011;26174;42.908;23.800;2024-01-27T06:41:19;3.15;;;2.95;;
40471;SDS011;26174;42.908;23.800;2024-01-27T06:43:45;2.45;;;2.03;;
40471;SDS011;26174;42.908;23.800;2024-01-27T06:46:11;14.38;;;4.22;;
40471;SDS011;26174;42.908;23.800;2024-01-27T06:48:36;5.75;;;3.90;;
40471;SDS011;26174;42.908;23.800;2024-01-27T06:51:02;7.32;;;4.93;;
40471;SDS011;26174;42.908;23.800;2024-01-27T06:53:30;5.70;;;4.50;;
40471;SDS011;26174;42.908;23.800;2024-01-27T06:55:56;4.72;;;4.25;;
40471;SDS011;26174;42.908;23.800;2024-01-27T06:58:21;8.45;;;6.20;;
40471;SDS011;26174;42.908;23.800;2024-01-27T07:00:47;6.90;;;6.15;;
40471;SDS011;26174;42.908;23.800;2024-01-27T07:03:12;12.20;;;8.40;;
40471;SDS011;26174;42.908;23.800;2024-01-27T07:05:38;19.63;;;8.13;;
40471;SDS011;26174;42.908;23.800;2024-01-27T07:08:08;8.68;;;5.07;;
40471;SDS011;26174;42.908;23.800;2024-01-27T07:10:34;7.32;;;4.50;;
40471;SDS011;26174;42.908;23.800;2024-01-27T07:13:00;13.00;;;8.68;;
40471;SDS011;26174;42.908;23.800;2024-01-27T07:15:26;4.65;;;3.92;;
40471;SDS011;26174;42.908;23.800;2024-01-27T07:17:53;21.30;;;4.13;;
40471;SDS011;26174;42.908;23.800;2024-01-27T07:20:19;21.27;;;8.20;;
40471;SDS011;26174;42.908;23.800;2024-01-27T07:22:46;11.88;;;8.73;;
40471;SDS011;26174;42.908;23.800;2024-01-27T07:25:12;12.00;;;6.32;;
40471;SDS011;26174;42.908;23.800;2024-01-27T07:27:38;2.72;;;2.00;;
40471;SDS011;26174;42.908;23.800;2024-01-27T07:30:04;6.03;;;3.38;;
40471;SDS011;26174;42.908;23.800;2024-01-27T07:32:31;3.28;;;2.60;;
40471;SDS011;26174;42.908;23.800;2024-01-27T07:34:57;11.45;;;5.03;;
40471;SDS011;26174;42.908;23.800;2024-01-27T07:37:22;2.88;;;2.10;;
40471;SDS011;26174;42.908;23.800;2024-01-27T07:39:48;2.88;;;1.20;;
40471;SDS011;26174;42.908;23.800;2024-01-27T07:42:14;3.72;;;1.30;;
40471;SDS011;26174;42.908;23.800;2024-01-27T07:44:40;1.50;;;1.40;;
40471;SDS011;26174;42.908;23.800;2024-01-27T07:47:07;4.03;;;3.00;;
40471;SDS011;26174;42.908;23.800;2024-01-27T07:49:34;2.63;;;1.98;;
40471;SDS011;26174;42.908;23.800;2024-01-27T07:51:59;4.20;;;3.33;;
40471;SDS011;26174;42.908;23.800;2024-01-27T07:54:25;13.75;;;2.28;;
40471;SDS011;26174;42.908;23.800;2024-01-27T07:56:51;5.45;;;3.70;;
40471;SDS011;26174;42.908;23.800;2024-01-27T07:59:17;6.38;;;2.80;;
40471;SDS011;26174;42.908;23.800;2024-01-27T08:01:42;4.15;;;2.75;;
40471;SDS011;26174;42.908;23.800;2024-01-27T08:04:09;1.25;;;1.17;;
40471;SDS011;26174;42.908;23.800;2024-01-27T08:06:45;0.77;;;0.70;;
40471;SDS011;26174;42.908;23.800;2024-01-27T08:09:11;1.33;;;1.23;;
40471;SDS011;26174;42.908;23.800;2024-01-27T08:11:37;2.28;;;0.85;;
40471;SDS011;26174;42.908;23.800;2024-01-27T08:14:02;0.30;;;0.30;;
40471;SDS011;26174;42.908;23.800;2024-01-27T08:16:28;1.15;;;0.88;;
40471;SDS011;26174;42.908;23.800;2024-01-27T08:18:53;0.30;;;0.30;;
40471;SDS011;26174;42.908;23.800;2024-01-27T08:21:19;0.43;;;0.43;;
40471;SDS011;26174;42.908;23.800;2024-01-27T08:23:45;1.50;;;1.40;;
40471;SDS011;26174;42.908;23.800;2024-01-27T08:26:10;3.72;;;1.50;;
40471;SDS011;26174;42.908;23.800;2024-01-27T08:28:36;0.40;;;0.40;;
40471;SDS011;26174;42.908;23.800;2024-01-27T08:31:02;1.45;;;1.08;;
40471;SDS011;26174;42.908;23.800;2024-01-27T08:33:28;0.30;;;0.30;;
40471;SDS011;26174;42.908;23.800;2024-01-27T08:35:55;0.50;;;0.50;;
40471;SDS011;26174;42.908;23.800;2024-01-27T08:38:21;2.83;;;0.70;;
40471;SDS011;26174;42.908;23.800;2024-01-27T08:40:46;0.85;;;0.85;;
40471;SDS011;26174;42.908;23.800;2024-01-27T08:43:12;1.15;;;0.90;;
40471;SDS011;26174;42.908;23.800;2024-01-27T08:45:37;0.50;;;0.50;;
40471;SDS011;26174;42.908;23.800;2024-01-27T08:48:06;1.30;;;0.77;;
40471;SDS011;26174;42.908;23.800;2024-01-27T08:50:32;1.27;;;0.90;;
40471;SDS011;26174;42.908;23.800;2024-01-27T08:52:58;0.30;;;0.25;;
40471;SDS011;26174;42.908;23.800;2024-01-27T08:55:23;1.05;;;0.95;;
40471;SDS011;26174;42.908;23.800;2024-01-27T08:57:49;1.45;;;0.60;;
40471;SDS011;26174;42.908;23.800;2024-01-27T09:00:16;0.47;;;0.47;;
40471;SDS011;26174;42.908;23.800;2024-01-27T09:02:45;1.48;;;0.55;;
40471;SDS011;26174;42.908;23.800;2024-01-27T09:05:10;1.58;;;0.60;;
40471;SDS011;26174;42.908;23.800;2024-01-27T09:07:36;2.38;;;1.00;;
40471;SDS011;26174;42.908;23.800;2024-01-27T09:10:02;0.35;;;0.30;;
40471;SDS011;26174;42.908;23.800;2024-01-27T09:12:28;4.07;;;1.30;;
40471;SDS011;26174;42.908;23.800;2024-01-27T09:14:53;2.08;;;0.98;;
40471;SDS011;26174;42.908;23.800;2024-01-27T09:17:19;0.35;;;0.20;;
40471;SDS011;26174;42.908;23.800;2024-01-27T09:19:45;0.73;;;0.40;;
40471;SDS011;26174;42.908;23.800;2024-01-27T09:22:11;0.52;;;0.52;;
40471;SDS011;26174;42.908;23.800;2024-01-27T09:24:37;0.43;;;0.40;;
40471;SDS011;26174;42.908;23.800;2024-01-27T09:27:02;4.65;;;1.05;;
40471;SDS011;26174;42.908;23.800;2024-01-27T09:29:29;0.82;;;0.77;;
40471;SDS011;26174;42.908;23.800;2024-01-27T09:31:54;5.88;;;1.40;;
40471;SDS011;26174;42.908;23.800;2024-01-27T09:34:20;0.90;;;0.90;;
40471;SDS011;26174;42.908;23.800;2024-01-27T09:36:46;1.45;;;1.27;;
40471;SDS011;26174;42.908;23.800;2024-01-27T09:39:11;1.38;;;0.80;;
40471;SDS011;26174;42.908;23.800;2024-01-27T09:41:37;2.03;;;1.05;;
40471;SDS011;26174;42.908;23.800;2024-01-27T09:44:03;1.58;;;1.05;;
40471;SDS011;26174;42.908;23.800;2024-01-27T09:46:30;1.17;;;1.08;;
40471;SDS011;26174;42.908;23.800;2024-01-27T09:48:57;1.60;;;0.60;;
40471;SDS011;26174;42.908;23.800;2024-01-27T09:51:24;0.40;;;0.40;;
40471;SDS011;26174;42.908;23.800;2024-01-27T09:53:50;0.47;;;0.43;;
40471;SDS011;26174;42.908;23.800;2024-01-27T09:56:16;1.25;;;0.98;;
40471;SDS011;26174;42.908;23.800;2024-01-27T09:58:46;1.02;;;0.47;;
40471;SDS011;26174;42.908;23.800;2024-01-27T10:01:12;0.75;;;0.60;;
40471;SDS011;26174;42.908;23.800;2024-01-27T10:03:38;0.60;;;0.60;;
40471;SDS011;26174;42.908;23.800;2024-01-27T10:06:07;1.10;;;0.65;;
40471;SDS011;26174;42.908;23.800;2024-01-27T10:08:34;1.60;;;0.73;;
40471;SDS011;26174;42.908;23.800;2024-01-27T10:11:00;1.25;;;1.15;;
40471;SDS011;26174;42.908;23.800;2024-01-27T10:13:32;3.65;;;0.80;;
40471;SDS011;26174;42.908;23.800;2024-01-27T10:18:28;0.25;;;0.25;;
40471;SDS011;26174;42.908;23.800;2024-01-27T10:20:54;0.47;;;0.32;;
40471;SDS011;26174;42.908;23.800;2024-01-27T10:23:19;0.57;;;0.50;;
40471;SDS011;26174;42.908;23.800;2024-01-27T10:25:45;0.17;;;0.17;;
40471;SDS011;26174;42.908;23.800;2024-01-27T10:28:11;2.00;;;1.40;;
40471;SDS011;26174;42.908;23.800;2024-01-27T10:30:37;0.95;;;0.80;;
40471;SDS011;26174;42.908;23.800;2024-01-27T10:33:03;0.95;;;0.52;;
40471;SDS011;26174;42.908;23.800;2024-01-27T10:35:29;5.10;;;2.75;;
40471;SDS011;26174;42.908;23.800;2024-01-27T10:37:55;1.77;;;0.95;;
40471;SDS011;26174;42.908;23.800;2024-01-27T10:40:21;0.85;;;0.47;;
40471;SDS011;26174;42.908;23.800;2024-01-27T10:43:00;2.00;;;0.93;;
40471;SDS011;26174;42.908;23.800;2024-01-27T10:48:02;1.35;;;0.80;;
40471;SDS011;26174;42.908;23.800;2024-01-27T10:50:28;0.52;;;0.30;;
40471;SDS011;26174;42.908;23.800;2024-01-27T10:52:55;0.32;;;0.32;;
40471;SDS011;26174;42.908;23.800;2024-01-27T10:55:22;0.25;;;0.25;;
40471;SDS011;26174;42.908;23.800;2024-01-27T10:57:50;2.15;;;1.42;;
40471;SDS011;26174;42.908;23.800;2024-01-27T11:00:17;0.98;;;0.60;;
40471;SDS011;26174;42.908;23.800;2024-01-27T11:02:43;1.73;;;1.23;;
40471;SDS011;26174;42.908;23.800;2024-01-27T11:05:10;0.50;;;0.50;;
40471;SDS011;26174;42.908;23.800;2024-01-27T11:07:36;1.27;;;0.93;;
40471;SDS011;26174;42.908;23.800;2024-01-27T11:10:03;3.90;;;1.35;;
40471;SDS011;26174;42.908;23.800;2024-01-27T11:12:32;2.83;;;0.75;;
40471;SDS011;26174;42.908;23.800;2024-01-27T11:15:00;3.72;;;1.23;;
40471;SDS011;26174;42.908;23.800;2024-01-27T11:17:27;0.82;;;0.82;;
40471;SDS011;26174;42.908;23.800;2024-01-27T11:19:53;0.75;;;0.75;;
40471;SDS011;26174;42.908;23.800;2024-01-27T11:25:07;1.88;;;0.95;;
40471;SDS011;26174;42.908;23.800;2024-01-27T11:27:34;0.98;;;0.75;;
40471;SDS011;26174;42.908;23.800;2024-01-27T11:29:59;0.95;;;0.80;;
40471;SDS011;26174;42.908;23.800;2024-01-27T11:32:25;2.05;;;1.30;;
40471;SDS011;26174;42.908;23.800;2024-01-27T11:34:51;1.38;;;1.15;;
40471;SDS011;26174;42.908;23.800;2024-01-27T11:37:17;0.57;;;0.57;;
40471;SDS011;26174;42.908;23.800;2024-01-27T11:39:49;3.40;;;0.65;;
40471;SDS011;26174;42.908;23.800;2024-01-27T11:42:14;1.58;;;1.33;;
40471;SDS011;26174;42.908;23.800;2024-01-27T11:44:43;1.30;;;0.68;;
40471;SDS011;26174;42.908;23.800;2024-01-27T11:47:19;12.88;;;4.18;;
40471;SDS011;26174;42.908;23.800;2024-01-27T11:49:54;11.65;;;5.95;;
40471;SDS011;26174;42.908;23.800;2024-01-27T11:52:22;11.05;;;5.97;;
40471;SDS011;26174;42.908;23.800;2024-01-27T11:54:54;17.90;;;9.15;;
40471;SDS011;26174;42.908;23.800;2024-01-27T11:57:20;16.33;;;9.48;;
40471;SDS011;26174;42.908;23.800;2024-01-27T11:59:46;16.00;;;9.60;;
40471;SDS011;26174;42.908;23.800;2024-01-27T12:02:12;5.68;;;3.65;;
40471;SDS011;26174;42.908;23.800;2024-01-27T12:04:37;23.77;;;6.40;;
40471;SDS011;26174;42.908;23.800;2024-01-27T12:07:03;8.38;;;4.53;;
40471;SDS011;26174;42.908;23.800;2024-01-27T12:09:29;12.18;;;5.63;;
40471;SDS011;26174;42.908;23.800;2024-01-27T12:11:54;10.95;;;6.60;;
40471;SDS011;26174;42.908;23.800;2024-01-27T12:14:20;20.23;;;9.48;;
40471;SDS011;26174;42.908;23.800;2024-01-27T12:16:46;15.07;;;6.43;;
40471;SDS011;26174;42.908;23.800;2024-01-27T12:19:12;8.57;;;4.40;;
40471;SDS011;26174;42.908;23.800;2024-01-27T12:21:38;6.10;;;4.05;;
40471;SDS011;26174;42.908;23.800;2024-01-27T12:24:04;7.93;;;3.15;;
40471;SDS011;26174;42.908;23.800;2024-01-27T12:26:30;4.75;;;2.50;;
40471;SDS011;26174;42.908;23.800;2024-01-27T12:28:57;9.90;;;4.72;;
40471;SDS011;26174;42.908;23.800;2024-01-27T12:31:23;6.45;;;3.03;;
40471;SDS011;26174;42.908;23.800;2024-01-27T12:33:52;6.68;;;3.10;;
40471;SDS011;26174;42.908;23.800;2024-01-27T12:36:21;6.07;;;2.87;;
40471;SDS011;26174;42.908;23.800;2024-01-27T12:38:53;3.83;;;2.20;;
40471;SDS011;26174;42.908;23.800;2024-01-27T12:41:24;6.13;;;3.25;;
40471;SDS011;26174;42.908;23.800;2024-01-27T12:43:53;5.35;;;2.88;;
40471;SDS011;26174;42.908;23.800;2024-01-27T12:46:19;3.30;;;2.03;;
40471;SDS011;26174;42.908;23.800;2024-01-27T12:48:44;4.60;;;2.33;;
40471;SDS011;26174;42.908;23.800;2024-01-27T12:51:10;4.22;;;2.30;;
40471;SDS011;26174;42.908;23.800;2024-01-27T12:53:38;13.27;;;4.50;;
40471;SDS011;26174;42.908;23.800;2024-01-27T12:56:07;6.03;;;3.33;;
40471;SDS011;26174;42.908;23.800;2024-01-27T12:58:40;5.43;;;3.00;;
40471;SDS011;26174;42.908;23.800;2024-01-27T13:01:06;7.82;;;3.13;;
40471;SDS011;26174;42.908;23.800;2024-01-27T13:03:33;9.07;;;3.97;;
40471;SDS011;26174;42.908;23.800;2024-01-27T13:05:59;4.53;;;2.42;;
40471;SDS011;26174;42.908;23.800;2024-01-27T13:08:25;6.75;;;3.90;;
40471;SDS011;26174;42.908;23.800;2024-01-27T13:10:51;7.65;;;3.45;;
40471;SDS011;26174;42.908;23.800;2024-01-27T13:13:17;17.73;;;4.15;;
40471;SDS011;26174;42.908;23.800;2024-01-27T13:15:42;4.55;;;3.05;;
40471;SDS011;26174;42.908;23.800;2024-01-27T13:18:09;7.72;;;3.42;;
40471;SDS011;26174;42.908;23.800;2024-01-27T13:20:35;6.72;;;4.20;;
40471;SDS011;26174;42.908;23.800;2024-01-27T13:23:01;8.25;;;5.03;;
40471;SDS011;26174;42.908;23.800;2024-01-27T13:25:27;7.50;;;4.53;;
40471;SDS011;26174;42.908;23.800;2024-01-27T13:27:52;9.77;;;4.30;;
40471;SDS011;26174;42.908;23.800;2024-01-27T13:30:18;6.35;;;3.30;;
40471;SDS011;26174;42.908;23.800;2024-01-27T13:32:44;4.32;;;2.90;;
40471;SDS011;26174;42.908;23.800;2024-01-27T13:35:09;4.43;;;2.50;;
40471;SDS011;26174;42.908;23.800;2024-01-27T13:37:35;19.80;;;6.88;;
40471;SDS011;26174;42.908;23.800;2024-01-27T13:40:02;26.33;;;12.77;;
40471;SDS011;26174;42.908;23.800;2024-01-27T13:42:29;9.57;;;4.32;;
40471;SDS011;26174;42.908;23.800;2024-01-27T13:44:55;12.75;;;7.03;;
40471;SDS011;26174;42.908;23.800;2024-01-27T13:47:20;12.25;;;4.85;;
40471;SDS011;26174;42.908;23.800;2024-01-27T13:49:46;9.57;;;4.47;;
40471;SDS011;26174;42.908;23.800;2024-01-27T13:52:12;5.88;;;3.80;;
40471;SDS011;26174;42.908;23.800;2024-01-27T13:54:38;6.03;;;3.20;;
40471;SDS011;26174;42.908;23.800;2024-01-27T13:57:03;5.95;;;2.67;;
40471;SDS011;26174;42.908;23.800;2024-01-27T13:59:32;7.35;;;2.83;;
40471;SDS011;26174;42.908;23.800;2024-01-27T14:01:58;5.28;;;1.85;;
40471;SDS011;26174;42.908;23.800;2024-01-27T14:04:24;3.63;;;2.33;;
40471;SDS011;26174;42.908;23.800;2024-01-27T14:06:50;4.47;;;2.15;;
40471;SDS011;26174;42.908;23.800;2024-01-27T14:09:18;3.00;;;1.92;;
40471;SDS011;26174;42.908;23.800;2024-01-27T14:11:50;4.90;;;2.90;;
40471;SDS011;26174;42.908;23.800;2024-01-27T14:14:17;4.85;;;2.58;;
40471;SDS011;26174;42.908;23.800;2024-01-27T14:16:43;4.38;;;2.45;;
40471;SDS011;26174;42.908;23.800;2024-01-27T14:19:10;5.40;;;2.53;;
40471;SDS011;26174;42.908;23.800;2024-01-27T14:21:36;4.50;;;2.40;;
40471;SDS011;26174;42.908;23.800;2024-01-27T14:24:02;5.05;;;3.22;;
40471;SDS011;26174;42.908;23.800;2024-01-27T14:26:30;6.63;;;2.75;;
40471;SDS011;26174;42.908;23.800;2024-01-27T14:28:59;7.93;;;3.17;;